Springfield, Ohio
Current Conditions -  °F | °C
As of 6:56 AM on Thursday 18 Dec 2014 (Local Time) from KSGH Reporting Station
Overcast Overcast  
Wind Chill: 19°   Ceiling: 1800
Heat Index: 26°   Visibility: 8mi
Dew Point: 20°   Wind: 6mph
Humidity: 78%   Direction: NA
Pressure: 30.26"   Gusts: NA
Location:  39.93°N, 83.81°W
Report Text: KSGH 181156Z AUTO VRB05KT 8SM OVC018 M03/M07 A3026 RMK AO2 55001 T10331066 11033 21038 SLP259
Loading
Personal Weather Stations






























Interactive Weather Map New forecast layout! Learn more

10-Day Weather Forecast

Advertisements
Track Severe Weather on mobile